Marshalls Creek, Pennsylvania
Current Conditions -  °F | °C
As of 12:53 AM on Sunday 23 Nov 2014 (Local Time) from KMPO Reporting Station
Few Clouds Few Clouds  
Wind Chill: 32°   Ceiling: Unl
Heat Index: 39°   Visibility: 10mi
Dew Point: 16°   Wind: 12mph
Humidity: 39%   Direction: 260°W
Pressure: 30.11"   Gusts: 22mph
Location:  41.04°N, 75.13°W
Report Text: KMPO 230553Z AUTO 26010G19KT 10SM FEW120 04/M09 A3011 RMK AO2 SLP211 T00391089 10050 20017 58006
Loading
Personal Weather Stations






























Interactive Weather Map New forecast layout! Learn more

10-Day Weather Forecast

Advertisements
Track Severe Weather on mobile